createdAt,value
2019-03-11T00:01:03.378Z,3.12
2019-03-11T00:03:34.512Z,3.08
2019-03-11T00:06:05.768Z,3.05
2019-03-11T00:08:36.997Z,3.08
2019-03-11T00:11:08.153Z,3.08
2019-03-11T00:13:39.320Z,3.10
2019-03-11T00:16:10.498Z,3.06
2019-03-11T00:18:41.620Z,3.06
2019-03-11T00:21:12.764Z,3.08
2019-03-11T00:23:43.899Z,3.12
2019-03-11T00:26:15.167Z,3.05
2019-03-11T00:28:46.275Z,3.11
2019-03-11T00:31:17.328Z,3.06
2019-03-11T00:33:48.395Z,3.03
2019-03-11T00:36:19.464Z,3.05
2019-03-11T00:38:50.723Z,3.04
2019-03-11T00:41:21.746Z,3.03
2019-03-11T00:43:52.924Z,3.08
2019-03-11T00:46:24.026Z,3.12
2019-03-11T00:48:55.055Z,3.04
2019-03-11T00:51:26.170Z,3.03
2019-03-11T00:53:57.190Z,3.06
2019-03-11T00:56:28.410Z,3.06
2019-03-11T00:59:00.462Z,2.98
2019-03-11T01:01:31.652Z,3.05
2019-03-11T01:04:02.817Z,3.06
2019-03-11T01:06:33.932Z,3.07
2019-03-11T01:09:06.589Z,3.14
2019-03-11T01:11:38.952Z,3.17
2019-03-11T01:14:10.048Z,3.19
2019-03-11T01:16:41.157Z,3.24
2019-03-11T01:19:12.365Z,3.14
2019-03-11T01:21:43.551Z,3.17
2019-03-11T01:24:14.662Z,3.14
2019-03-11T01:26:45.806Z,3.02
2019-03-11T01:29:16.973Z,2.95
2019-03-11T01:31:48.170Z,2.92
2019-03-11T01:34:19.256Z,2.76
2019-03-11T01:36:50.534Z,2.69
2019-03-11T01:39:22.734Z,2.69
2019-03-11T01:41:53.789Z,2.57
2019-03-11T01:44:24.775Z,2.46
2019-03-11T01:46:55.951Z,2.50
2019-03-11T01:49:27.171Z,2.52
2019-03-11T01:51:58.354Z,2.58
2019-03-11T01:54:29.499Z,2.58
2019-03-11T01:57:00.679Z,2.68
2019-03-11T01:59:31.777Z,2.65
2019-03-11T02:02:03.109Z,2.68
2019-03-11T02:04:34.302Z,2.76
2019-03-11T02:07:05.351Z,2.79
2019-03-11T02:09:36.472Z,2.90
2019-03-11T02:12:07.485Z,2.95
2019-03-11T02:14:38.580Z,2.93
2019-03-11T02:17:10.754Z,3.01
2019-03-11T02:19:41.714Z,3.04
2019-03-11T02:22:12.832Z,3.03
2019-03-11T02:24:43.904Z,3.09
2019-03-11T02:27:14.913Z,3.15
2019-03-11T02:29:45.972Z,3.22
2019-03-11T02:32:17.079Z,3.30
2019-03-11T02:34:48.083Z,3.34
2019-03-11T02:37:20.249Z,3.35
2019-03-11T02:39:51.522Z,3.29
2019-03-11T02:42:22.500Z,3.36
2019-03-11T02:44:53.576Z,3.44
2019-03-11T02:47:24.751Z,3.43
2019-03-11T02:49:55.886Z,3.29
2019-03-11T02:52:27.001Z,3.29
2019-03-11T02:54:59.073Z,3.26
2019-03-11T02:57:30.147Z,3.25
2019-03-11T03:00:01.211Z,3.27
2019-03-11T03:02:41.125Z,3.26
2019-03-11T03:05:13.842Z,3.25
2019-03-11T03:07:45.097Z,3.26
2019-03-11T03:10:16.377Z,3.27
2019-03-11T03:12:47.488Z,3.35
2019-03-11T03:15:18.523Z,3.35
2019-03-11T03:17:49.586Z,3.48
2019-03-11T03:20:20.716Z,3.39
2019-03-11T03:22:51.775Z,3.44
2019-03-11T03:25:34.089Z,3.43
2019-03-11T03:27:55.735Z,3.33
2019-03-11T03:30:26.765Z,3.41
2019-03-11T03:32:57.854Z,3.48
2019-03-11T03:35:28.799Z,3.63
2019-03-11T03:37:59.931Z,3.64
2019-03-11T03:40:30.995Z,3.63
2019-03-11T03:43:02.361Z,3.82
2019-03-11T03:45:35.804Z,3.85
2019-03-11T03:48:07.036Z,3.70
2019-03-11T03:50:39.477Z,3.70
2019-03-11T03:53:10.535Z,3.72
2019-03-11T03:55:44.941Z,3.77
2019-03-11T03:58:16.004Z,3.71
2019-03-11T04:00:47.992Z,3.72
2019-03-11T04:03:19.256Z,3.61
2019-03-11T04:05:50.279Z,3.80
2019-03-11T04:08:24.319Z,3.79
2019-03-11T04:10:55.462Z,3.85
2019-03-11T04:13:26.550Z,3.90
2019-03-11T04:15:57.762Z,3.81
2019-03-11T04:18:32.127Z,3.91
2019-03-11T04:21:03.422Z,3.81
2019-03-11T04:23:34.904Z,4.04
2019-03-11T04:26:06.012Z,4.00
2019-03-11T04:28:37.345Z,4.15
2019-03-11T04:31:08.415Z,4.19
2019-03-11T04:33:39.658Z,4.19
2019-03-11T04:36:10.750Z,4.25
2019-03-11T04:38:42.019Z,4.37
2019-03-11T04:41:13.261Z,4.35
2019-03-11T04:43:44.557Z,4.45
2019-03-11T04:46:17.287Z,4.59
2019-03-11T04:48:49.324Z,4.80
2019-03-11T04:51:20.476Z,4.87
2019-03-11T04:53:51.598Z,4.96
2019-03-11T04:56:22.737Z,4.89
2019-03-11T04:58:53.765Z,4.79
2019-03-11T05:01:24.719Z,4.87
2019-03-11T05:03:55.803Z,4.95
2019-03-11T05:06:27.155Z,4.88
2019-03-11T05:08:58.262Z,4.98
2019-03-11T05:11:29.400Z,4.75
2019-03-11T05:14:00.526Z,4.80
2019-03-11T05:16:31.600Z,4.80
2019-03-11T05:19:02.779Z,4.82
2019-03-11T05:21:33.928Z,4.86
2019-03-11T05:24:05.177Z,4.87
2019-03-11T05:26:36.296Z,4.84
2019-03-11T05:29:07.416Z,4.83
2019-03-11T05:31:38.763Z,4.76
2019-03-11T05:34:11.939Z,4.79
2019-03-11T05:36:42.658Z,4.92
2019-03-11T05:39:13.783Z,4.86
2019-03-11T05:41:45.087Z,4.93
2019-03-11T05:44:17.744Z,4.97
2019-03-11T05:46:50.423Z,5.05
2019-03-11T05:49:22.675Z,5.02
2019-03-11T05:51:53.851Z,5.05
2019-03-11T05:54:25.070Z,5.07
2019-03-11T05:56:58.957Z,5.04
2019-03-11T05:59:29.152Z,4.85
2019-03-11T06:02:00.234Z,4.85
2019-03-11T06:04:31.451Z,4.88
2019-03-11T06:07:02.519Z,4.91
2019-03-11T06:09:33.738Z,5.04
2019-03-11T06:12:04.738Z,5.13
2019-03-11T06:14:35.865Z,5.22
2019-03-11T06:17:06.834Z,5.32
2019-03-11T06:19:38.003Z,5.46
2019-03-11T06:22:13.741Z,5.56
2019-03-11T06:24:44.931Z,5.56
2019-03-11T06:27:16.016Z,5.76
2019-03-11T06:29:47.157Z,5.86
2019-03-11T06:32:18.237Z,6.12
2019-03-11T06:34:49.513Z,6.02
2019-03-11T06:37:20.749Z,6.21
2019-03-11T06:39:52.004Z,6.51
2019-03-11T06:42:23.164Z,6.76
2019-03-11T06:44:54.372Z,7.23
2019-03-11T06:47:26.881Z,7.14
2019-03-11T06:49:58.080Z,7.54
2019-03-11T06:52:29.409Z,7.68
2019-03-11T06:55:00.449Z,8.00
2019-03-11T06:57:31.536Z,8.15
2019-03-11T07:00:02.835Z,8.19
2019-03-11T07:02:33.983Z,8.03
2019-03-11T07:05:05.158Z,8.15
2019-03-11T07:07:36.313Z,8.26
2019-03-11T07:10:10.413Z,8.32
2019-03-11T07:12:41.427Z,8.19
2019-03-11T07:15:14.927Z,8.37
2019-03-11T07:17:46.946Z,8.64
2019-03-11T07:20:18.949Z,8.48
2019-03-11T07:22:50.055Z,8.48
2019-03-11T07:25:21.147Z,8.65
2019-03-11T07:27:52.162Z,9.01
2019-03-11T07:30:23.248Z,9.17
2019-03-11T07:32:54.191Z,8.98
2019-03-11T07:35:25.155Z,9.09
2019-03-11T07:37:58.363Z,9.03
2019-03-11T07:40:30.551Z,9.32
2019-03-11T07:43:04.162Z,9.20
2019-03-11T07:45:35.182Z,9.20
2019-03-11T07:48:06.279Z,9.05
2019-03-11T07:50:37.328Z,9.22
2019-03-11T07:53:08.530Z,9.37
2019-03-11T07:55:39.575Z,9.39
2019-03-11T07:58:10.629Z,9.17
2019-03-11T08:00:53.023Z,9.18
2019-03-11T08:03:17.198Z,9.59
2019-03-11T08:05:48.368Z,9.38
2019-03-11T08:08:19.465Z,9.70
2019-03-11T08:10:50.533Z,9.61
2019-03-11T08:13:23.279Z,9.70
2019-03-11T08:15:54.434Z,9.86
2019-03-11T08:18:34.424Z,9.57
2019-03-11T08:20:58.459Z,9.27
2019-03-11T08:23:29.686Z,9.14
2019-03-11T08:26:00.782Z,9.17
2019-03-11T08:28:31.892Z,9.39
2019-03-11T08:31:02.932Z,9.46
2019-03-11T08:33:34.128Z,9.83
2019-03-11T08:36:07.280Z,9.64
2019-03-11T08:38:39.354Z,9.72
2019-03-11T08:41:10.379Z,10.06
2019-03-11T08:43:41.768Z,9.86
2019-03-11T08:46:13.911Z,9.73
2019-03-11T08:48:44.976Z,9.89
2019-03-11T08:51:15.994Z,10.42
2019-03-11T08:53:47.171Z,10.43
2019-03-11T08:56:18.153Z,10.33
2019-03-11T08:58:49.186Z,10.74
2019-03-11T09:01:20.306Z,11.04
2019-03-11T09:03:51.474Z,10.41
2019-03-11T09:06:22.535Z,10.63
2019-03-11T09:08:53.613Z,10.91
2019-03-11T09:11:24.745Z,10.71
2019-03-11T09:13:55.735Z,10.81
2019-03-11T09:16:26.666Z,10.50
2019-03-11T09:18:58.094Z,10.85
2019-03-11T09:21:29.021Z,10.89
2019-03-11T09:24:00.213Z,10.96
2019-03-11T09:26:31.340Z,10.84
2019-03-11T09:29:02.382Z,10.39
2019-03-11T09:31:33.884Z,10.31
2019-03-11T09:34:04.974Z,10.13
2019-03-11T09:36:36.170Z,10.32
2019-03-11T09:39:08.950Z,10.26
2019-03-11T09:41:43.251Z,10.33
2019-03-11T09:44:14.455Z,10.27
2019-03-11T09:46:45.443Z,10.38
2019-03-11T09:49:16.533Z,10.74
2019-03-11T09:51:48.292Z,10.87
2019-03-11T09:54:19.664Z,10.85
2019-03-11T09:56:51.115Z,11.20
2019-03-11T09:59:22.353Z,11.17
2019-03-11T10:01:53.558Z,11.31
2019-03-11T10:04:24.687Z,11.42
2019-03-11T10:06:55.973Z,11.34
2019-03-11T10:09:27.156Z,11.27
2019-03-11T10:11:58.429Z,11.05
2019-03-11T10:14:29.502Z,11.20
2019-03-11T10:17:01.699Z,11.32
2019-03-11T10:19:32.926Z,11.48
2019-03-11T10:22:04.288Z,11.59
2019-03-11T10:24:35.733Z,11.59
2019-03-11T10:27:06.784Z,11.38
2019-03-11T10:29:37.880Z,11.46
2019-03-11T10:32:09.053Z,11.23
2019-03-11T10:34:40.138Z,11.37
2019-03-11T10:37:11.416Z,11.42
2019-03-11T10:39:42.521Z,11.72
2019-03-11T10:42:13.578Z,11.80
2019-03-11T10:44:44.779Z,11.64
2019-03-11T10:47:15.948Z,11.49
2019-03-11T10:49:46.997Z,11.48
2019-03-11T10:52:17.940Z,11.79
2019-03-11T10:54:48.866Z,11.72
2019-03-11T10:57:19.906Z,11.91
2019-03-11T10:59:51.044Z,11.98
2019-03-11T11:02:22.134Z,12.06
2019-03-11T11:04:53.191Z,11.79
2019-03-11T11:07:24.266Z,11.80
2019-03-11T11:09:55.423Z,12.12
2019-03-11T11:12:26.721Z,12.10
2019-03-11T11:14:57.822Z,12.14
2019-03-11T11:17:28.962Z,12.14
2019-03-11T11:20:03.655Z,12.08
2019-03-11T11:22:34.294Z,12.38
2019-03-11T11:25:09.171Z,12.48
2019-03-11T11:27:40.484Z,12.51
2019-03-11T11:30:19.460Z,12.60
2019-03-11T11:32:50.689Z,12.71
2019-03-11T11:35:21.839Z,12.65
2019-03-11T11:37:53.131Z,12.69
2019-03-11T11:40:26.264Z,12.84
2019-03-11T11:42:57.215Z,13.00
2019-03-11T11:45:32.186Z,12.97
2019-03-11T11:48:03.325Z,13.23
2019-03-11T11:50:34.473Z,13.04
2019-03-11T11:53:05.650Z,13.03
2019-03-11T11:55:36.927Z,13.00
2019-03-11T11:58:08.152Z,13.11
2019-03-11T12:00:40.959Z,13.31
2019-03-11T12:03:12.320Z,13.22
2019-03-11T12:05:43.332Z,13.12
2019-03-11T12:08:14.564Z,12.79
2019-03-11T12:10:45.596Z,12.77
2019-03-11T12:13:16.898Z,12.87
2019-03-11T12:15:48.078Z,12.88
2019-03-11T12:18:19.254Z,12.85
2019-03-11T12:20:50.284Z,13.09
2019-03-11T12:23:21.473Z,12.81
2019-03-11T12:25:52.650Z,12.97
2019-03-11T12:28:23.853Z,13.02
2019-03-11T12:30:54.932Z,12.95
2019-03-11T12:33:26.114Z,12.82
2019-03-11T12:35:57.348Z,12.85
2019-03-11T12:38:28.932Z,12.97
2019-03-11T12:41:00.204Z,12.90
2019-03-11T12:43:31.376Z,13.05
2019-03-11T12:46:02.549Z,13.02
2019-03-11T12:48:34.628Z,12.94
2019-03-11T12:51:05.643Z,12.85
2019-03-11T12:53:37.051Z,12.82
2019-03-11T12:56:08.263Z,12.74
2019-03-11T12:58:42.062Z,12.80
2019-03-11T13:01:13.156Z,12.95
2019-03-11T13:03:44.226Z,12.98
2019-03-11T13:06:15.209Z,12.91
2019-03-11T13:08:46.264Z,12.93
2019-03-11T13:11:17.325Z,12.83
2019-03-11T13:13:48.389Z,12.74
2019-03-11T13:16:19.435Z,12.78
2019-03-11T13:18:50.619Z,12.74
2019-03-11T13:21:24.527Z,12.71
2019-03-11T13:23:56.698Z,12.82
2019-03-11T13:26:28.766Z,12.90
2019-03-11T13:29:00.053Z,12.92
2019-03-11T13:31:31.099Z,12.98
2019-03-11T13:34:02.156Z,13.17
2019-03-11T13:36:33.224Z,13.03
2019-03-11T13:39:04.878Z,12.96
2019-03-11T13:41:36.297Z,12.80
2019-03-11T13:44:08.092Z,12.64
2019-03-11T13:46:39.235Z,12.66
2019-03-11T13:49:10.226Z,12.44
2019-03-11T13:51:41.278Z,12.32
2019-03-11T13:54:12.398Z,12.49
2019-03-11T13:56:43.514Z,12.47
2019-03-11T13:59:14.580Z,12.37
2019-03-11T14:01:45.543Z,12.15
2019-03-11T14:04:16.631Z,12.13
2019-03-11T14:06:47.842Z,11.96
2019-03-11T14:09:18.866Z,11.76
2019-03-11T14:11:49.924Z,11.81
2019-03-11T14:14:21.133Z,11.77
2019-03-11T14:16:52.184Z,11.75
2019-03-11T14:19:23.892Z,11.68
2019-03-11T14:21:55.442Z,11.52
2019-03-11T14:24:28.289Z,11.39
2019-03-11T14:27:00.284Z,11.40
2019-03-11T14:29:33.162Z,11.23
2019-03-11T14:32:05.190Z,11.24
2019-03-11T14:34:36.793Z,11.18
2019-03-11T14:37:11.195Z,11.23
2019-03-11T14:39:42.333Z,11.22
2019-03-11T14:42:13.313Z,10.99
2019-03-11T14:44:44.453Z,10.93
2019-03-11T14:47:15.741Z,10.81
2019-03-11T14:49:46.764Z,10.74
2019-03-11T14:52:17.734Z,10.76
2019-03-11T14:54:48.745Z,10.79
2019-03-11T14:57:19.952Z,10.40
2019-03-11T14:59:50.993Z,10.00
2019-03-11T15:02:21.983Z,9.76
2019-03-11T15:04:53.205Z,9.55
2019-03-11T15:07:24.143Z,9.34
2019-03-11T15:09:55.189Z,9.19
2019-03-11T15:12:26.166Z,8.98
2019-03-11T15:14:57.182Z,8.99
2019-03-11T15:17:29.229Z,8.91
2019-03-11T15:20:00.414Z,8.88
2019-03-11T15:22:31.412Z,8.76
2019-03-11T15:25:02.403Z,8.80
2019-03-11T15:27:33.555Z,8.73
2019-03-11T15:30:10.092Z,8.69
2019-03-11T15:32:41.108Z,8.61
2019-03-11T15:35:12.151Z,8.55
2019-03-11T15:37:43.144Z,8.51
2019-03-11T15:40:16.102Z,8.54
2019-03-11T15:42:47.166Z,8.50
2019-03-11T15:45:19.267Z,8.41
2019-03-11T15:47:50.417Z,8.37
2019-03-11T15:50:30.515Z,8.33
2019-03-11T15:53:01.493Z,8.32
2019-03-11T15:55:32.737Z,8.28
2019-03-11T15:58:03.886Z,8.28
2019-03-11T16:00:34.985Z,8.28
2019-03-11T16:03:06.055Z,8.25
2019-03-11T16:05:38.654Z,8.16
2019-03-11T16:08:09.622Z,8.09
2019-03-11T16:10:40.924Z,8.06
2019-03-11T16:13:11.913Z,8.01
2019-03-11T16:15:42.897Z,7.97
2019-03-11T16:18:13.962Z,7.95
2019-03-11T16:20:45.001Z,7.97
2019-03-11T16:23:15.977Z,7.86
2019-03-11T16:25:47.168Z,7.81
2019-03-11T16:28:18.280Z,7.81
2019-03-11T16:30:49.516Z,7.86
2019-03-11T16:33:23.450Z,7.88
2019-03-11T16:35:54.577Z,7.84
2019-03-11T16:38:25.649Z,7.89
2019-03-11T16:40:56.706Z,7.89
2019-03-11T16:43:27.824Z,7.79
2019-03-11T16:45:58.902Z,7.79
2019-03-11T16:48:29.944Z,7.75
2019-03-11T16:51:00.962Z,7.82
2019-03-11T16:53:32.030Z,7.76
2019-03-11T16:56:03.117Z,7.76
2019-03-11T16:58:34.150Z,7.69
2019-03-11T17:01:06.897Z,7.75
2019-03-11T17:03:38.084Z,7.74
2019-03-11T17:06:10.446Z,7.72
2019-03-11T17:08:41.586Z,7.69
2019-03-11T17:11:12.706Z,7.56
2019-03-11T17:13:44.012Z,7.56
2019-03-11T17:16:15.221Z,7.59
2019-03-11T17:18:46.275Z,7.57
2019-03-11T17:21:18.441Z,7.50
2019-03-11T17:23:49.582Z,7.50
2019-03-11T17:26:20.562Z,7.48
2019-03-11T17:28:51.844Z,7.53
2019-03-11T17:31:22.960Z,7.50
2019-03-11T17:33:53.947Z,7.46
2019-03-11T17:36:26.641Z,7.46
2019-03-11T17:38:57.986Z,7.42
2019-03-11T17:41:29.047Z,7.35
2019-03-11T17:44:00.143Z,7.33
2019-03-11T17:46:31.386Z,7.26
2019-03-11T17:49:02.505Z,7.17
2019-03-11T17:51:33.667Z,7.16
2019-03-11T17:54:04.867Z,7.11
2019-03-11T17:56:36.039Z,7.05
2019-03-11T17:59:08.275Z,7.06
2019-03-11T18:01:39.359Z,7.02
2019-03-11T18:04:10.379Z,7.03
2019-03-11T18:06:41.403Z,6.93
2019-03-11T18:09:12.382Z,6.96
2019-03-11T18:11:43.415Z,6.93
2019-03-11T18:14:14.322Z,6.89
2019-03-11T18:16:45.508Z,6.82
2019-03-11T18:19:16.548Z,6.82
2019-03-11T18:21:47.616Z,6.85
2019-03-11T18:24:18.667Z,6.81
2019-03-11T18:26:50.552Z,6.78
2019-03-11T18:29:21.653Z,6.80
2019-03-11T18:32:01.549Z,6.79
2019-03-11T18:34:25.625Z,6.75
2019-03-11T18:36:57.691Z,6.80
2019-03-11T18:39:28.778Z,6.74
2019-03-11T18:41:59.907Z,6.75
2019-03-11T18:44:31.074Z,6.69
2019-03-11T18:47:02.120Z,6.64
2019-03-11T18:49:33.309Z,6.61
2019-03-11T18:52:04.340Z,6.55
2019-03-11T18:54:36.951Z,6.57
2019-03-11T18:57:08.131Z,6.54
2019-03-11T18:59:39.253Z,6.52
2019-03-11T19:02:10.457Z,6.49
2019-03-11T19:04:41.519Z,6.48
2019-03-11T19:07:12.610Z,6.42
2019-03-11T19:09:43.657Z,6.38
2019-03-11T19:12:14.830Z,6.43
2019-03-11T19:14:45.840Z,6.39
2019-03-11T19:17:16.918Z,6.39
2019-03-11T19:19:48.115Z,6.40
2019-03-11T19:22:19.170Z,6.44
2019-03-11T19:24:50.152Z,6.42
2019-03-11T19:27:21.230Z,6.46
2019-03-11T19:29:52.225Z,6.54
2019-03-11T19:32:23.191Z,6.50
2019-03-11T19:34:54.332Z,6.47
2019-03-11T19:37:25.351Z,6.48
2019-03-11T19:39:56.342Z,6.53
2019-03-11T19:42:27.545Z,6.50
2019-03-11T19:44:58.663Z,6.42
2019-03-11T19:47:29.743Z,6.43
2019-03-11T19:50:01.142Z,6.38
2019-03-11T19:52:34.114Z,6.29
2019-03-11T19:55:05.937Z,6.32
2019-03-11T19:57:36.969Z,6.38
2019-03-11T20:00:11.443Z,6.43
2019-03-11T20:02:42.562Z,6.33
2019-03-11T20:05:16.168Z,6.23
2019-03-11T20:07:47.686Z,6.17
2019-03-11T20:10:21.855Z,6.20
2019-03-11T20:12:55.753Z,6.15
2019-03-11T20:15:26.963Z,6.23
2019-03-11T20:17:58.166Z,6.11
2019-03-11T20:20:29.420Z,6.05
2019-03-11T20:23:00.657Z,6.11
2019-03-11T20:25:36.335Z,5.96
2019-03-11T20:28:07.576Z,5.96
2019-03-11T20:30:38.679Z,6.02
2019-03-11T20:33:09.986Z,6.01
2019-03-11T20:35:41.126Z,5.94
2019-03-11T20:38:12.211Z,5.84
2019-03-11T20:40:43.242Z,5.81
2019-03-11T20:43:14.352Z,5.74
2019-03-11T20:45:45.626Z,5.64
2019-03-11T20:48:16.802Z,5.54
2019-03-11T20:50:47.941Z,5.51
2019-03-11T20:53:19.991Z,5.44
2019-03-11T20:55:51.064Z,5.40
2019-03-11T20:58:22.084Z,5.40
2019-03-11T21:00:53.064Z,5.38
2019-03-11T21:03:24.185Z,5.32
2019-03-11T21:06:01.232Z,5.31
2019-03-11T21:08:32.455Z,5.22
2019-03-11T21:11:03.601Z,5.23
2019-03-11T21:13:35.657Z,5.16
2019-03-11T21:16:06.795Z,5.11
2019-03-11T21:18:37.935Z,5.10
2019-03-11T21:21:08.880Z,5.08
2019-03-11T21:23:41.895Z,5.00
2019-03-11T21:26:12.766Z,4.93
2019-03-11T21:28:43.985Z,4.99
2019-03-11T21:31:18.355Z,4.96
2019-03-11T21:33:58.507Z,4.96
2019-03-11T21:36:22.273Z,4.88
2019-03-11T21:38:53.300Z,4.87
2019-03-11T21:41:24.390Z,4.84
2019-03-11T21:43:55.356Z,4.82
2019-03-11T21:46:26.616Z,4.77
2019-03-11T21:48:57.565Z,4.72
2019-03-11T21:51:28.599Z,4.72
2019-03-11T21:53:59.682Z,4.68
2019-03-11T21:56:30.737Z,4.67
2019-03-11T21:59:01.801Z,4.66
2019-03-11T22:01:32.729Z,4.63
2019-03-11T22:04:03.872Z,4.62
2019-03-11T22:06:34.861Z,4.59
2019-03-11T22:09:07.539Z,4.56
2019-03-11T22:11:39.088Z,4.52
2019-03-11T22:14:10.121Z,4.53
2019-03-11T22:16:41.179Z,4.50
2019-03-11T22:19:12.386Z,4.42
2019-03-11T22:21:44.988Z,4.39
2019-03-11T22:24:16.958Z,4.39
2019-03-11T22:26:48.119Z,4.31
2019-03-11T22:29:19.342Z,4.34
2019-03-11T22:31:50.565Z,4.36
2019-03-11T22:34:21.747Z,4.34
2019-03-11T22:36:56.170Z,4.23
2019-03-11T22:39:27.387Z,4.16
2019-03-11T22:41:58.316Z,4.18
2019-03-11T22:44:29.318Z,4.09
2019-03-11T22:47:00.307Z,4.09
2019-03-11T22:49:33.369Z,4.06
2019-03-11T22:52:04.634Z,3.99
2019-03-11T22:54:35.675Z,3.90
2019-03-11T22:57:06.682Z,3.95
2019-03-11T22:59:37.909Z,3.93
2019-03-11T23:02:11.526Z,3.94
2019-03-11T23:04:41.632Z,3.93
2019-03-11T23:07:12.639Z,3.92
2019-03-11T23:09:43.682Z,3.84
2019-03-11T23:12:14.657Z,3.84
2019-03-11T23:14:45.677Z,3.83
2019-03-11T23:17:16.783Z,3.84
2019-03-11T23:19:50.180Z,3.78
2019-03-11T23:22:21.176Z,3.68
2019-03-11T23:24:52.138Z,3.72
2019-03-11T23:27:23.105Z,3.67
2019-03-11T23:29:54.227Z,3.66
2019-03-11T23:32:25.293Z,3.57
2019-03-11T23:34:57.199Z,3.52
2019-03-11T23:37:28.415Z,3.51
2019-03-11T23:39:59.432Z,3.46
2019-03-11T23:42:30.575Z,3.45
2019-03-11T23:45:01.563Z,3.43
2019-03-11T23:47:34.043Z,3.39
2019-03-11T23:50:07.407Z,3.38
2019-03-11T23:52:38.406Z,3.42
2019-03-11T23:55:10.598Z,3.33
2019-03-11T23:57:41.538Z,3.32
